createdAt,value
2022-11-24T00:01:31.730Z,9.38
2022-11-24T00:04:01.776Z,9.65
2022-11-24T00:06:30.822Z,11.90
2022-11-24T00:08:59.367Z,10.32
2022-11-24T00:11:33.054Z,10.63
2022-11-24T00:14:01.649Z,11.15
2022-11-24T00:16:33.232Z,10.63
2022-11-24T00:19:03.609Z,10.38
2022-11-24T00:21:32.622Z,11.45
2022-11-24T00:24:00.624Z,11.25
2022-11-24T00:26:31.173Z,10.18
2022-11-24T00:29:30.910Z,12.68
2022-11-24T00:31:58.577Z,11.40
2022-11-24T00:34:26.120Z,10.60
2022-11-24T00:36:53.655Z,12.68
2022-11-24T00:39:21.150Z,10.30
2022-11-24T00:41:48.869Z,9.48
2022-11-24T00:44:16.508Z,10.07
2022-11-24T00:46:44.248Z,10.80
2022-11-24T00:49:12.137Z,10.63
2022-11-24T00:51:40.045Z,10.20
2022-11-24T00:54:07.468Z,11.40
2022-11-24T00:56:35.227Z,12.13
2022-11-24T00:59:02.764Z,10.07
2022-11-24T01:01:31.550Z,10.00
2022-11-24T01:04:03.753Z,10.02
2022-11-24T01:06:32.887Z,12.35
2022-11-24T01:09:00.461Z,12.57
2022-11-24T01:11:50.729Z,13.75
2022-11-24T01:14:19.102Z,11.68
2022-11-24T01:16:46.702Z,11.77
2022-11-24T01:19:14.348Z,11.38
2022-11-24T01:21:41.829Z,11.68
2022-11-24T01:24:11.068Z,12.85
2022-11-24T01:26:39.451Z,11.43
2022-11-24T01:31:34.352Z,12.57
2022-11-24T01:34:01.997Z,14.07
2022-11-24T01:36:29.712Z,12.88
2022-11-24T01:38:57.284Z,13.13
2022-11-24T01:41:26.562Z,11.20
2022-11-24T01:44:00.585Z,14.82
2022-11-24T01:46:34.315Z,10.23
2022-11-24T01:49:13.886Z,11.63
2022-11-24T01:52:04.627Z,11.60
2022-11-24T01:54:36.799Z,10.50
2022-11-24T01:57:16.959Z,8.98
2022-11-24T01:59:48.302Z,10.38
2022-11-24T02:02:20.974Z,8.05
2022-11-24T02:04:49.578Z,10.18
2022-11-24T02:07:17.165Z,11.40
2022-11-24T02:09:52.244Z,11.82
2022-11-24T02:15:26.178Z,10.50
2022-11-24T02:17:59.735Z,12.30
2022-11-24T02:20:27.416Z,14.18
2022-11-24T02:23:04.156Z,12.93
2022-11-24T02:25:36.330Z,12.65
2022-11-24T02:28:09.036Z,11.95
2022-11-24T02:30:36.701Z,14.10
2022-11-24T02:35:45.741Z,17.05
2022-11-24T02:38:14.181Z,14.65
2022-11-24T02:43:15.150Z,13.10
2022-11-24T02:45:42.762Z,14.65
2022-11-24T02:48:19.254Z,15.30
2022-11-24T02:50:47.045Z,12.30
2022-11-24T02:53:14.467Z,13.25
2022-11-24T02:55:42.031Z,17.08
2022-11-24T02:58:09.602Z,18.00
2022-11-24T03:00:37.344Z,16.65
2022-11-24T03:03:04.846Z,16.55
2022-11-24T03:05:32.497Z,14.35
2022-11-24T03:07:59.908Z,14.57
2022-11-24T03:10:28.759Z,15.18
2022-11-24T03:12:56.818Z,17.10
2022-11-24T03:15:24.894Z,15.70
2022-11-24T03:18:42.906Z,17.08
2022-11-24T03:21:00.295Z,13.27
2022-11-24T03:23:27.749Z,13.90
2022-11-24T03:25:55.306Z,13.23
2022-11-24T03:28:22.852Z,13.05
2022-11-24T03:30:50.726Z,11.85
2022-11-24T03:33:18.214Z,12.48
2022-11-24T03:35:45.815Z,13.93
2022-11-24T03:38:13.266Z,14.55
2022-11-24T03:40:40.809Z,11.85
2022-11-24T03:43:08.350Z,13.90
2022-11-24T03:45:46.161Z,11.00
2022-11-24T03:48:16.098Z,12.27
2022-11-24T03:50:44.164Z,11.35
2022-11-24T03:53:11.771Z,13.85
2022-11-24T03:55:39.387Z,14.13
2022-11-24T03:58:07.022Z,12.20
2022-11-24T04:00:34.525Z,11.95
2022-11-24T04:03:02.212Z,12.85
2022-11-24T04:05:29.687Z,14.07
2022-11-24T04:07:57.876Z,10.90
2022-11-24T04:10:25.719Z,11.80
2022-11-24T04:12:53.211Z,12.15
2022-11-24T04:15:21.526Z,12.07
2022-11-24T04:20:17.987Z,11.02
2022-11-24T04:22:45.954Z,12.80
2022-11-24T04:25:14.872Z,14.20
2022-11-24T04:27:42.673Z,10.90
2022-11-24T04:30:10.730Z,13.80
2022-11-24T04:32:38.270Z,13.85
2022-11-24T04:35:06.701Z,15.02
2022-11-24T04:37:34.702Z,11.35
2022-11-24T04:40:02.618Z,14.52
2022-11-24T04:42:30.289Z,14.95
2022-11-24T04:44:57.822Z,12.38
2022-11-24T04:47:27.158Z,14.43
2022-11-24T04:49:55.325Z,14.40
2022-11-24T04:55:12.088Z,12.88
2022-11-24T04:57:39.822Z,16.00
2022-11-24T05:00:08.397Z,16.38
2022-11-24T05:02:35.971Z,14.88
2022-11-24T05:05:03.762Z,8.45
2022-11-24T05:07:31.325Z,12.90
2022-11-24T05:10:25.549Z,11.32
2022-11-24T05:15:25.657Z,11.93
2022-11-24T05:17:53.328Z,11.38
2022-11-24T05:20:21.874Z,11.90
2022-11-24T05:22:50.341Z,10.75
2022-11-24T05:27:54.585Z,13.23
2022-11-24T05:30:22.694Z,11.70
2022-11-24T05:32:50.451Z,13.73
2022-11-24T05:35:19.801Z,12.60
2022-11-24T05:37:48.589Z,11.80
2022-11-24T05:40:16.863Z,11.27
2022-11-24T05:42:47.725Z,14.82
2022-11-24T05:45:19.354Z,17.00
2022-11-24T05:47:48.155Z,13.93
2022-11-24T05:52:45.772Z,12.52
2022-11-24T05:55:15.268Z,13.30
2022-11-24T05:57:43.310Z,12.45
2022-11-24T06:00:12.174Z,12.43
2022-11-24T06:02:43.334Z,11.75
2022-11-24T06:05:11.546Z,11.38
2022-11-24T06:07:52.122Z,14.35
2022-11-24T06:10:21.851Z,11.98
2022-11-24T06:12:49.995Z,11.70
2022-11-24T06:15:18.638Z,11.70
2022-11-24T06:17:55.342Z,12.57
2022-11-24T06:20:28.490Z,11.20
2022-11-24T06:23:01.003Z,10.30
2022-11-24T06:25:30.915Z,12.80
2022-11-24T06:27:58.779Z,13.30
2022-11-24T06:30:26.382Z,10.85
2022-11-24T06:32:56.891Z,9.55
2022-11-24T06:35:25.070Z,10.50
2022-11-24T06:37:54.988Z,11.05
2022-11-24T06:40:23.152Z,12.77
2022-11-24T06:42:52.736Z,10.07
2022-11-24T06:45:20.693Z,10.70
2022-11-24T06:47:48.897Z,8.25
2022-11-24T06:50:16.854Z,8.30
2022-11-24T06:52:45.116Z,10.20
2022-11-24T06:55:13.158Z,12.48
2022-11-24T06:57:40.958Z,8.18
2022-11-24T07:00:09.381Z,9.65
2022-11-24T07:02:41.075Z,8.18
2022-11-24T07:05:13.440Z,8.13
2022-11-24T07:07:41.396Z,8.30
2022-11-24T07:10:09.410Z,8.57
2022-11-24T07:12:37.228Z,8.25
2022-11-24T07:15:05.616Z,8.95
2022-11-24T07:20:05.307Z,9.35
2022-11-24T07:22:33.195Z,8.48
2022-11-24T07:25:01.294Z,7.65
2022-11-24T07:27:30.933Z,9.27
2022-11-24T07:30:00.230Z,7.88
2022-11-24T07:32:27.924Z,9.65
2022-11-24T07:34:55.735Z,8.82
2022-11-24T07:37:29.664Z,9.35
2022-11-24T07:40:19.288Z,9.00
2022-11-24T07:42:47.309Z,10.13
2022-11-24T07:45:15.076Z,7.90
2022-11-24T07:47:43.302Z,9.75
2022-11-24T07:50:11.672Z,7.78
2022-11-24T07:52:43.392Z,8.25
2022-11-24T07:55:15.573Z,14.10
2022-11-24T08:08:49.138Z,8.25
2022-11-24T08:11:18.644Z,8.38
2022-11-24T08:13:46.894Z,9.07
2022-11-24T08:18:49.333Z,5.50
2022-11-24T08:21:17.801Z,9.00
2022-11-24T08:23:45.731Z,7.10
2022-11-24T08:28:59.835Z,11.40
2022-11-24T08:31:33.834Z,7.00
2022-11-24T08:34:06.925Z,5.68
2022-11-24T08:36:35.515Z,7.97
2022-11-24T08:39:06.421Z,9.07
2022-11-24T08:41:34.505Z,10.77
2022-11-24T08:44:02.820Z,7.18
2022-11-24T08:48:58.919Z,7.32
2022-11-24T08:51:27.655Z,8.25
2022-11-24T08:53:59.551Z,8.65
2022-11-24T08:56:32.473Z,10.73
2022-11-24T08:59:01.145Z,9.38
2022-11-24T09:04:11.349Z,9.95
2022-11-24T09:06:39.412Z,16.60
2022-11-24T09:09:07.253Z,9.75
2022-11-24T09:11:35.038Z,11.75
2022-11-24T09:14:04.132Z,11.57
2022-11-24T09:16:32.495Z,14.45
2022-11-24T09:19:06.382Z,10.10
2022-11-24T09:21:38.587Z,15.07
2022-11-24T09:24:08.149Z,13.48
2022-11-24T09:26:39.050Z,12.73
2022-11-24T09:29:11.416Z,13.13
2022-11-24T09:31:40.055Z,11.63
2022-11-24T09:36:37.623Z,11.25
2022-11-24T09:39:05.718Z,11.40
2022-11-24T09:41:55.758Z,12.20
2022-11-24T09:44:38.901Z,12.30
2022-11-24T09:47:17.566Z,10.82
2022-11-24T09:49:55.186Z,11.48
2022-11-24T09:53:03.891Z,14.40
2022-11-24T09:55:40.259Z,13.02
2022-11-24T10:01:35.053Z,11.95
2022-11-24T10:04:06.330Z,10.77
2022-11-24T10:07:10.923Z,9.48
2022-11-24T10:09:47.835Z,11.43
2022-11-24T10:12:38.088Z,11.13
2022-11-24T10:15:11.879Z,14.48
2022-11-24T10:21:01.567Z,12.05
2022-11-24T10:23:56.936Z,9.25
2022-11-24T10:26:30.838Z,9.13
2022-11-24T10:28:58.810Z,10.75
2022-11-24T10:31:30.996Z,9.18
2022-11-24T10:34:04.385Z,10.75
2022-11-24T10:37:02.178Z,10.05
2022-11-24T10:39:35.582Z,11.32
2022-11-24T10:42:26.832Z,10.43
2022-11-24T10:45:05.645Z,10.73
2022-11-24T10:47:34.853Z,14.45
2022-11-24T10:50:14.278Z,10.27
2022-11-24T10:53:08.802Z,11.90
2022-11-24T10:55:55.392Z,12.13
2022-11-24T10:58:26.716Z,15.35
2022-11-24T11:01:00.493Z,11.80
2022-11-24T11:03:34.156Z,11.35
2022-11-24T11:06:12.435Z,12.27
2022-11-24T11:08:40.852Z,11.75
2022-11-24T11:11:19.701Z,13.65
2022-11-24T11:14:04.263Z,13.30
2022-11-24T11:16:40.047Z,14.77
2022-11-24T11:19:47.915Z,12.88
2022-11-24T11:22:31.274Z,17.83
2022-11-24T11:25:11.411Z,14.32
2022-11-24T11:27:41.289Z,11.43
2022-11-24T11:36:12.402Z,14.90
2022-11-24T11:38:42.404Z,12.15
2022-11-24T11:41:19.619Z,8.77
2022-11-24T11:43:50.913Z,9.38
2022-11-24T11:46:18.715Z,10.05
2022-11-24T11:48:48.311Z,9.27
2022-11-24T11:51:37.201Z,8.75
2022-11-24T11:54:40.883Z,7.97
2022-11-24T11:57:26.865Z,8.15
2022-11-24T12:00:29.947Z,8.05
2022-11-24T12:03:05.983Z,7.43
2022-11-24T12:06:09.172Z,9.90
2022-11-24T12:11:57.955Z,10.93
2022-11-24T12:14:39.187Z,10.80
2022-11-24T12:17:19.108Z,6.93
2022-11-24T12:20:22.036Z,13.85
2022-11-24T12:23:19.013Z,8.65
2022-11-24T12:26:02.197Z,8.65
2022-11-24T12:28:35.787Z,10.75
2022-11-24T12:31:07.934Z,9.48
2022-11-24T12:34:17.421Z,16.20
2022-11-24T12:37:02.100Z,9.98
2022-11-24T12:39:55.905Z,10.10
2022-11-24T12:42:27.257Z,8.20
2022-11-24T12:45:10.149Z,11.13
2022-11-24T12:47:51.020Z,10.80
2022-11-24T12:50:21.764Z,13.73
2022-11-24T12:52:58.829Z,10.77
2022-11-24T12:55:29.721Z,12.95
2022-11-24T12:58:16.381Z,12.23
2022-11-24T13:01:16.746Z,11.93
2022-11-24T13:04:39.514Z,9.93
2022-11-24T13:07:11.970Z,11.57
2022-11-24T13:10:18.782Z,12.27
2022-11-24T13:13:07.937Z,9.55
2022-11-24T13:16:20.575Z,9.98
2022-11-24T13:18:57.261Z,10.43
2022-11-24T13:21:50.583Z,9.68
2022-11-24T13:24:19.800Z,8.20
2022-11-24T13:27:16.664Z,12.80
2022-11-24T13:29:46.386Z,9.45
2022-11-24T13:32:15.371Z,12.80
2022-11-24T13:37:34.923Z,18.38
2022-11-24T13:40:24.749Z,22.20
2022-11-24T13:42:55.278Z,18.40
2022-11-24T13:45:49.527Z,24.05
2022-11-24T13:48:20.488Z,34.67
2022-11-24T13:50:52.755Z,24.75
2022-11-24T13:53:46.138Z,27.83
2022-11-24T13:56:13.622Z,19.40
2022-11-24T13:58:44.249Z,17.65
2022-11-24T14:01:28.865Z,12.70
2022-11-24T14:07:15.672Z,10.77
2022-11-24T14:09:50.540Z,18.20
2022-11-24T14:12:25.940Z,17.05
2022-11-24T14:14:57.576Z,14.73
2022-11-24T14:17:28.692Z,18.45
2022-11-24T14:19:58.415Z,17.33
2022-11-24T14:22:41.649Z,14.85
2022-11-24T14:25:38.873Z,17.45
2022-11-24T14:28:23.848Z,15.65
2022-11-24T14:31:06.248Z,19.30
2022-11-24T14:33:33.978Z,16.70
2022-11-24T14:36:01.464Z,16.48
2022-11-24T14:38:29.174Z,23.23
2022-11-24T14:40:56.900Z,19.58
2022-11-24T14:43:31.939Z,24.45
2022-11-24T14:46:10.178Z,22.58
2022-11-24T14:48:40.458Z,29.17
2022-11-24T14:51:32.411Z,32.83
2022-11-24T14:54:15.266Z,23.55
2022-11-24T14:56:57.788Z,36.15
2022-11-24T14:59:28.085Z,30.48
2022-11-24T15:01:57.110Z,27.00
2022-11-24T15:07:27.421Z,29.08
2022-11-24T15:10:01.097Z,26.30
2022-11-24T15:12:38.192Z,24.67
2022-11-24T15:15:14.920Z,30.10
2022-11-24T15:18:02.842Z,33.72
2022-11-24T15:20:44.825Z,38.17
2022-11-24T15:23:23.223Z,40.47
2022-11-24T15:25:55.233Z,32.75
2022-11-24T15:28:26.306Z,33.38
2022-11-24T15:30:55.571Z,34.40
2022-11-24T15:33:24.045Z,29.08
2022-11-24T15:35:52.198Z,27.42
2022-11-24T15:38:20.268Z,23.73
2022-11-24T15:40:49.996Z,25.35
2022-11-24T15:43:37.628Z,16.88
2022-11-24T15:48:33.582Z,23.55
2022-11-24T15:51:03.352Z,30.48
2022-11-24T15:53:44.930Z,27.92
2022-11-24T15:56:31.303Z,20.05
2022-11-24T15:58:59.003Z,25.80
2022-11-24T16:01:31.484Z,24.45
2022-11-24T16:03:59.173Z,28.83
2022-11-24T16:06:26.548Z,16.52
2022-11-24T16:08:54.771Z,12.55
2022-11-24T16:11:23.275Z,11.35
2022-11-24T16:13:53.685Z,13.95
2022-11-24T16:16:23.583Z,11.15
2022-11-24T16:18:51.449Z,9.50
2022-11-24T16:21:18.896Z,11.00
2022-11-24T16:23:46.877Z,13.73
2022-11-24T16:26:14.421Z,14.27
2022-11-24T16:28:42.391Z,14.90
2022-11-24T16:31:10.041Z,19.13
2022-11-24T16:33:40.947Z,15.07
2022-11-24T16:36:08.797Z,14.32
2022-11-24T16:41:22.082Z,17.95
2022-11-24T16:43:49.531Z,18.05
2022-11-24T16:46:21.343Z,12.20
2022-11-24T16:48:52.363Z,11.32
2022-11-24T16:51:22.103Z,12.10
2022-11-24T16:53:57.894Z,10.05
2022-11-24T16:56:26.917Z,10.45
2022-11-24T16:58:54.566Z,14.23
2022-11-24T17:01:22.757Z,13.88
2022-11-24T17:03:50.551Z,12.07
2022-11-24T17:06:19.364Z,10.45
2022-11-24T17:08:47.785Z,9.20
2022-11-24T17:13:46.050Z,9.07
2022-11-24T17:16:16.316Z,10.77
2022-11-24T17:18:44.253Z,9.55
2022-11-24T17:21:17.379Z,10.55
2022-11-24T17:23:45.255Z,10.30
2022-11-24T17:26:15.288Z,11.10
2022-11-24T17:28:43.219Z,12.98
2022-11-24T17:31:32.382Z,13.15
2022-11-24T17:34:01.190Z,17.48
2022-11-24T17:36:30.642Z,15.00
2022-11-24T17:39:00.421Z,11.77
2022-11-24T17:41:28.269Z,12.20
2022-11-24T17:43:56.973Z,13.07
2022-11-24T17:48:53.402Z,13.25
2022-11-24T17:51:23.426Z,14.23
2022-11-24T17:53:52.749Z,14.93
2022-11-24T17:56:25.648Z,13.98
2022-11-24T17:59:09.172Z,13.18
2022-11-24T18:01:36.746Z,12.48
2022-11-24T18:04:19.605Z,14.57
2022-11-24T18:06:47.339Z,12.18
2022-11-24T18:09:14.685Z,12.40
2022-11-24T18:11:42.185Z,11.75
2022-11-24T18:14:10.368Z,17.77
2022-11-24T18:16:37.984Z,14.52
2022-11-24T18:19:10.896Z,12.98
2022-11-24T18:21:43.985Z,16.63
2022-11-24T18:24:12.649Z,16.25
2022-11-24T18:26:41.108Z,17.25
2022-11-24T18:29:09.580Z,15.43
2022-11-24T18:31:37.834Z,17.33
2022-11-24T18:34:06.476Z,15.93
2022-11-24T18:36:35.222Z,15.02
2022-11-24T18:39:07.853Z,12.43
2022-11-24T18:41:35.977Z,13.05
2022-11-24T18:44:08.345Z,14.45
2022-11-24T18:46:37.320Z,13.75
2022-11-24T18:49:05.431Z,17.08
2022-11-24T18:54:29.716Z,16.30
2022-11-24T18:57:02.968Z,27.15
2022-11-24T18:59:31.254Z,19.33
2022-11-24T19:01:58.706Z,18.15
2022-11-24T19:04:26.585Z,21.08
2022-11-24T19:06:53.886Z,22.63
2022-11-24T19:09:23.038Z,25.70
2022-11-24T19:11:50.687Z,21.35
2022-11-24T19:14:19.362Z,18.25
2022-11-24T19:16:50.362Z,18.10
2022-11-24T19:19:18.518Z,22.75
2022-11-24T19:21:46.115Z,26.83
2022-11-24T19:24:13.785Z,27.83
2022-11-24T19:26:41.502Z,25.83
2022-11-24T19:29:09.654Z,21.38
2022-11-24T19:31:40.680Z,24.15
2022-11-24T19:34:08.445Z,26.55
2022-11-24T19:36:36.294Z,20.42
2022-11-24T19:39:05.372Z,18.30
2022-11-24T19:41:34.243Z,18.15
2022-11-24T19:44:01.931Z,28.42
2022-11-24T19:46:30.410Z,23.95
2022-11-24T19:49:02.590Z,24.92
2022-11-24T19:51:57.441Z,16.23
2022-11-24T19:54:25.033Z,19.77
2022-11-24T19:56:53.435Z,22.10
2022-11-24T20:01:51.290Z,18.55
2022-11-24T20:04:20.677Z,19.98
2022-11-24T20:06:48.380Z,14.75
2022-11-24T20:09:18.085Z,13.95
2022-11-24T20:11:47.090Z,15.80
2022-11-24T20:14:16.178Z,12.60
2022-11-24T20:19:33.149Z,12.27
2022-11-24T20:22:00.988Z,11.32
2022-11-24T20:24:28.463Z,13.50
2022-11-24T20:26:58.533Z,11.45
2022-11-24T20:29:28.676Z,15.20
2022-11-24T20:31:56.832Z,14.65
2022-11-24T20:34:24.839Z,15.60
2022-11-24T20:36:53.342Z,17.33
2022-11-24T20:39:25.616Z,16.55
2022-11-24T20:41:54.530Z,15.75
2022-11-24T20:47:06.534Z,18.50
2022-11-24T20:49:34.058Z,17.70
2022-11-24T20:52:02.149Z,17.15
2022-11-24T20:54:29.753Z,17.75
2022-11-24T20:56:57.369Z,15.80
2022-11-24T20:59:25.347Z,16.40
2022-11-24T21:04:39.608Z,16.58
2022-11-24T21:07:07.032Z,16.85
2022-11-24T21:09:34.567Z,16.23
2022-11-24T21:12:02.130Z,16.45
2022-11-24T21:14:33.972Z,16.02
2022-11-24T21:19:47.576Z,18.00
2022-11-24T21:22:14.931Z,16.77
2022-11-24T21:24:42.474Z,18.75
2022-11-24T21:27:09.987Z,15.15
2022-11-24T21:29:37.553Z,12.57
2022-11-24T21:32:05.179Z,15.20
2022-11-24T21:34:32.918Z,15.95
2022-11-24T21:37:00.547Z,16.17
2022-11-24T21:39:28.063Z,15.95
2022-11-24T21:41:55.547Z,16.30
2022-11-24T21:44:41.486Z,17.33
2022-11-24T21:47:09.041Z,16.25
2022-11-24T21:49:36.444Z,15.95
2022-11-24T21:52:04.095Z,16.80
2022-11-24T21:54:31.606Z,14.55
2022-11-24T21:56:59.017Z,15.48
2022-11-24T21:59:26.561Z,15.52
2022-11-24T22:01:54.433Z,15.85
2022-11-24T22:04:21.973Z,13.68
2022-11-24T22:06:49.435Z,12.57
2022-11-24T22:09:18.383Z,14.88
2022-11-24T22:11:46.765Z,14.52
2022-11-24T22:14:14.190Z,13.25
2022-11-24T22:16:41.809Z,19.33
2022-11-24T22:19:09.189Z,21.02
2022-11-24T22:21:37.102Z,19.05
2022-11-24T22:24:04.871Z,25.88
2022-11-24T22:26:32.420Z,19.95
2022-11-24T22:28:59.867Z,29.00
2022-11-24T22:31:29.623Z,28.50
2022-11-24T22:33:59.211Z,24.67
2022-11-24T22:36:36.603Z,26.83
2022-11-24T22:39:06.039Z,21.50
2022-11-24T22:41:36.163Z,19.63
2022-11-24T22:44:04.553Z,19.15
2022-11-24T22:46:32.507Z,14.15
2022-11-24T22:49:01.906Z,16.13
2022-11-24T22:51:34.258Z,17.10
2022-11-24T22:54:03.961Z,16.40
2022-11-24T22:56:32.667Z,16.38
2022-11-24T22:59:01.619Z,14.05
2022-11-24T23:01:30.251Z,18.30
2022-11-24T23:03:58.073Z,27.55
2022-11-24T23:06:27.546Z,21.05
2022-11-24T23:08:55.906Z,24.83
2022-11-24T23:11:31.543Z,20.65
2022-11-24T23:14:02.946Z,22.27
2022-11-24T23:16:30.843Z,19.40
2022-11-24T23:18:58.679Z,17.30
2022-11-24T23:21:34.444Z,18.17
2022-11-24T23:24:03.764Z,16.17
2022-11-24T23:26:34.572Z,21.10
2022-11-24T23:29:02.856Z,19.45
2022-11-24T23:31:30.552Z,20.10
2022-11-24T23:34:00.551Z,18.30
2022-11-24T23:36:28.944Z,21.67
2022-11-24T23:38:57.061Z,20.40
2022-11-24T23:41:26.068Z,21.92
2022-11-24T23:43:53.702Z,20.25
2022-11-24T23:46:23.304Z,22.80
2022-11-24T23:48:52.551Z,25.73
2022-11-24T23:51:22.414Z,34.53
2022-11-24T23:53:50.967Z,36.10
2022-11-24T23:56:21.513Z,22.75
2022-11-24T23:58:49.389Z,27.60
